createdAt,value
2023-02-19T00:00:18.624Z,1.10
2023-02-19T00:03:43.593Z,1.20
2023-02-19T00:07:09.000Z,0.97
2023-02-19T00:10:33.248Z,0.93
2023-02-19T00:13:58.727Z,1.10
2023-02-19T00:17:22.569Z,1.30
2023-02-19T00:20:46.680Z,1.10
2023-02-19T00:24:14.359Z,1.10
2023-02-19T00:27:38.255Z,1.00
2023-02-19T00:31:08.089Z,1.30
2023-02-19T00:34:32.317Z,1.20
2023-02-19T00:37:56.250Z,1.00
2023-02-19T00:41:22.949Z,1.10
2023-02-19T00:44:46.834Z,1.13
2023-02-19T00:48:10.733Z,1.10
2023-02-19T00:51:37.882Z,1.20
2023-02-19T00:55:01.721Z,1.17
2023-02-19T00:58:27.242Z,1.47
2023-02-19T01:01:51.246Z,1.00
2023-02-19T01:05:16.196Z,1.00
2023-02-19T01:08:41.194Z,0.97
2023-02-19T01:12:05.971Z,1.10
2023-02-19T01:15:30.844Z,1.00
2023-02-19T01:18:55.503Z,1.00
2023-02-19T01:22:19.391Z,1.10
2023-02-19T01:25:44.462Z,0.90
2023-02-19T01:29:08.382Z,1.07
2023-02-19T01:32:33.447Z,1.10
2023-02-19T01:35:57.572Z,0.90
2023-02-19T01:39:21.458Z,1.20
2023-02-19T01:42:45.810Z,1.10
2023-02-19T01:46:09.702Z,1.10
2023-02-19T01:49:40.946Z,1.00
2023-02-19T01:53:08.552Z,0.90
2023-02-19T01:56:35.593Z,1.10
2023-02-19T02:00:09.053Z,1.10
2023-02-19T02:03:41.818Z,0.90
2023-02-19T02:07:31.037Z,1.00
2023-02-19T02:10:54.991Z,1.00
2023-02-19T02:14:20.635Z,0.90
2023-02-19T02:17:53.736Z,0.90
2023-02-19T02:21:46.920Z,1.10
2023-02-19T02:25:43.902Z,0.87
2023-02-19T02:29:52.655Z,1.10
2023-02-19T02:33:33.001Z,1.43
2023-02-19T02:37:00.592Z,1.00
2023-02-19T02:40:24.700Z,0.80
2023-02-19T02:43:48.382Z,0.77
2023-02-19T02:47:28.704Z,1.00
2023-02-19T02:50:59.349Z,1.00
2023-02-19T02:54:48.791Z,0.90
2023-02-19T02:58:16.632Z,0.80
2023-02-19T03:02:03.680Z,1.00
2023-02-19T03:05:47.504Z,1.10
2023-02-19T03:09:20.021Z,1.07
2023-02-19T03:13:03.791Z,0.70
2023-02-19T03:16:49.963Z,0.80
2023-02-19T03:20:17.068Z,0.80
2023-02-19T03:24:00.629Z,0.80
2023-02-19T03:27:28.674Z,0.80
2023-02-19T03:30:56.440Z,0.80
2023-02-19T03:34:27.392Z,0.87
2023-02-19T03:37:59.156Z,0.80
2023-02-19T03:41:32.151Z,0.90
2023-02-19T03:45:20.763Z,0.73
2023-02-19T03:48:52.129Z,0.70
2023-02-19T03:52:21.517Z,0.80
2023-02-19T03:55:56.830Z,0.80
2023-02-19T03:59:33.191Z,0.70
2023-02-19T04:03:07.083Z,0.77
2023-02-19T04:06:34.785Z,0.70
2023-02-19T04:09:58.842Z,0.70
2023-02-19T04:13:28.434Z,0.70
2023-02-19T04:17:01.966Z,0.80
2023-02-19T04:20:31.042Z,0.70
2023-02-19T04:23:54.596Z,0.80
2023-02-19T04:27:19.439Z,0.90
2023-02-19T04:30:44.287Z,0.80
2023-02-19T04:34:09.828Z,0.70
2023-02-19T04:37:33.802Z,0.80
2023-02-19T04:40:58.125Z,0.70
2023-02-19T04:44:22.436Z,0.90
2023-02-19T04:47:46.256Z,0.67
2023-02-19T04:51:12.930Z,0.70
2023-02-19T04:54:36.869Z,0.73
2023-02-19T04:58:01.264Z,0.70
2023-02-19T05:01:25.846Z,0.70
2023-02-19T05:04:49.872Z,0.60
2023-02-19T05:08:15.043Z,0.70
2023-02-19T05:11:39.029Z,0.70
2023-02-19T05:15:02.821Z,0.60
2023-02-19T05:18:26.698Z,0.60
2023-02-19T05:21:50.479Z,0.60
2023-02-19T05:25:15.789Z,0.60
2023-02-19T05:28:39.549Z,0.60
2023-02-19T05:32:03.315Z,0.60
2023-02-19T05:35:27.177Z,0.60
2023-02-19T05:38:55.030Z,0.60
2023-02-19T05:42:19.873Z,0.50
2023-02-19T05:45:43.737Z,0.60
2023-02-19T05:49:07.468Z,0.50
2023-02-19T05:52:31.292Z,0.50
2023-02-19T05:55:55.088Z,0.60
2023-02-19T05:59:22.653Z,0.60
2023-02-19T06:02:47.547Z,0.60
2023-02-19T06:06:13.925Z,0.60
2023-02-19T06:09:37.726Z,0.50
2023-02-19T06:13:01.230Z,0.50
2023-02-19T06:16:26.814Z,0.60
2023-02-19T06:19:50.329Z,0.57
2023-02-19T06:23:14.121Z,0.50
2023-02-19T06:26:39.173Z,0.50
2023-02-19T06:30:02.939Z,0.50
2023-02-19T06:33:28.732Z,0.60
2023-02-19T06:36:52.553Z,0.60
2023-02-19T06:40:16.467Z,0.70
2023-02-19T06:43:40.335Z,0.50
2023-02-19T06:47:04.159Z,0.63
2023-02-19T06:50:29.034Z,0.60
2023-02-19T06:53:52.868Z,0.60
2023-02-19T06:57:16.812Z,0.70
2023-02-19T07:00:40.656Z,0.60
2023-02-19T07:04:05.849Z,0.63
2023-02-19T07:07:31.180Z,0.70
2023-02-19T07:10:59.612Z,0.77
2023-02-19T07:14:23.380Z,0.60
2023-02-19T07:17:47.108Z,0.60
2023-02-19T07:21:13.732Z,0.70
2023-02-19T07:24:38.839Z,0.77
2023-02-19T07:28:03.814Z,0.73
2023-02-19T07:31:27.776Z,0.70
2023-02-19T07:34:52.174Z,0.77
2023-02-19T07:38:18.172Z,0.70
2023-02-19T07:41:43.351Z,0.70
2023-02-19T07:45:13.826Z,0.70
2023-02-19T07:48:38.494Z,0.80
2023-02-19T07:52:02.551Z,0.80
2023-02-19T07:55:26.444Z,0.80
2023-02-19T07:58:51.411Z,0.80
2023-02-19T08:02:36.852Z,0.73
2023-02-19T08:06:00.727Z,0.80
2023-02-19T08:09:24.522Z,0.93
2023-02-19T08:13:13.283Z,0.97
2023-02-19T08:16:43.254Z,0.90
2023-02-19T08:20:08.375Z,0.80
2023-02-19T08:23:31.882Z,0.80
2023-02-19T08:26:56.089Z,0.80
2023-02-19T08:30:19.955Z,0.90
2023-02-19T08:33:45.322Z,0.90
2023-02-19T08:37:09.100Z,1.00
2023-02-19T08:40:33.854Z,0.70
2023-02-19T08:43:57.303Z,0.80
2023-02-19T08:47:21.126Z,0.87
2023-02-19T08:50:46.293Z,0.70
2023-02-19T08:54:10.081Z,0.80
2023-02-19T08:57:37.468Z,0.70
2023-02-19T09:01:01.384Z,0.80
2023-02-19T09:04:25.426Z,0.70
2023-02-19T09:07:50.345Z,0.80
2023-02-19T09:11:14.512Z,0.80
2023-02-19T09:14:39.259Z,0.80
2023-02-19T09:18:03.052Z,0.70
2023-02-19T09:21:26.911Z,1.00
2023-02-19T09:24:52.168Z,0.90
2023-02-19T09:28:16.835Z,0.83
2023-02-19T09:31:40.719Z,1.10
2023-02-19T09:35:04.723Z,0.90
2023-02-19T09:38:29.317Z,0.87
2023-02-19T09:41:58.977Z,1.10
2023-02-19T09:45:26.169Z,1.07
2023-02-19T09:48:50.130Z,1.10
2023-02-19T09:52:20.029Z,0.97
2023-02-19T09:55:45.867Z,1.03
2023-02-19T09:59:20.755Z,1.00
2023-02-19T10:02:44.549Z,0.80
2023-02-19T10:06:16.000Z,0.90
2023-02-19T10:09:40.016Z,1.00
2023-02-19T10:13:19.072Z,1.00
2023-02-19T10:16:47.030Z,0.90
2023-02-19T10:20:15.922Z,1.10
2023-02-19T10:23:42.266Z,0.83
2023-02-19T10:27:07.272Z,0.90
2023-02-19T10:30:34.216Z,1.00
2023-02-19T10:34:02.305Z,0.90
2023-02-19T10:37:26.785Z,1.10
2023-02-19T10:40:58.899Z,0.90
2023-02-19T10:44:28.201Z,1.00
2023-02-19T10:47:52.512Z,0.90
2023-02-19T10:51:21.620Z,1.00
2023-02-19T10:54:45.743Z,1.03
2023-02-19T10:58:27.678Z,0.97
2023-02-19T11:01:58.964Z,0.90
2023-02-19T11:05:23.725Z,0.97
2023-02-19T11:09:01.331Z,1.20
2023-02-19T11:12:28.190Z,1.23
2023-02-19T11:15:55.114Z,0.87
2023-02-19T11:19:37.579Z,0.90
2023-02-19T11:23:12.226Z,0.90
2023-02-19T11:26:38.179Z,0.90
2023-02-19T11:30:35.843Z,1.10
2023-02-19T11:34:03.848Z,0.80
2023-02-19T11:37:27.785Z,1.10
2023-02-19T11:41:03.791Z,1.00
2023-02-19T11:44:43.257Z,1.00
2023-02-19T11:48:30.209Z,1.87
2023-02-19T11:52:10.937Z,0.93
2023-02-19T11:55:48.760Z,1.17
2023-02-19T11:59:23.835Z,0.90
2023-02-19T12:03:24.830Z,1.00
2023-02-19T12:06:58.227Z,1.00
2023-02-19T12:10:27.755Z,1.00
2023-02-19T12:14:05.410Z,1.20
2023-02-19T12:18:11.826Z,1.13
2023-02-19T12:21:54.807Z,1.07
2023-02-19T12:25:46.084Z,1.10
2023-02-19T12:29:25.806Z,1.20
2023-02-19T12:33:09.323Z,0.87
2023-02-19T12:36:48.970Z,1.00
2023-02-19T12:40:39.112Z,0.90
2023-02-19T12:44:10.419Z,1.03
2023-02-19T12:47:41.424Z,0.90
2023-02-19T12:51:13.140Z,0.97
2023-02-19T12:54:43.283Z,1.10
2023-02-19T12:58:12.582Z,0.93
2023-02-19T13:01:44.545Z,0.90
2023-02-19T13:05:21.633Z,1.10
2023-02-19T13:09:05.754Z,0.93
2023-02-19T13:12:36.065Z,0.93
2023-02-19T13:16:05.022Z,1.40
2023-02-19T13:19:29.888Z,1.00
2023-02-19T13:23:18.691Z,1.10
2023-02-19T13:27:08.760Z,0.90
2023-02-19T13:30:54.508Z,1.00
2023-02-19T13:34:37.021Z,0.97
2023-02-19T13:38:03.984Z,0.97
2023-02-19T13:41:36.123Z,0.90
2023-02-19T13:45:02.626Z,1.47
2023-02-19T13:48:29.654Z,1.10
2023-02-19T13:51:55.044Z,0.90
2023-02-19T13:55:52.605Z,1.90
2023-02-19T13:59:35.842Z,1.20
2023-02-19T14:03:40.191Z,1.00
2023-02-19T14:07:54.407Z,1.37
2023-02-19T14:11:18.576Z,1.27
2023-02-19T14:14:45.024Z,1.40
2023-02-19T14:18:45.056Z,1.33
2023-02-19T14:22:42.129Z,1.40
2023-02-19T14:26:09.082Z,1.10
2023-02-19T14:29:33.161Z,1.03
2023-02-19T14:33:10.371Z,1.00
2023-02-19T14:36:45.278Z,1.20
2023-02-19T14:40:19.199Z,0.97
2023-02-19T14:43:44.557Z,1.00
2023-02-19T14:47:10.156Z,1.20
2023-02-19T14:50:35.609Z,1.10
2023-02-19T14:54:07.926Z,1.20
2023-02-19T14:57:39.336Z,1.00
2023-02-19T15:01:03.248Z,1.00
2023-02-19T15:04:29.764Z,1.23
2023-02-19T15:07:56.346Z,1.40
2023-02-19T15:11:24.670Z,1.13
2023-02-19T15:14:50.898Z,0.90
2023-02-19T15:18:20.667Z,1.03
2023-02-19T15:21:49.705Z,1.10
2023-02-19T15:25:18.925Z,0.90
2023-02-19T15:28:44.135Z,0.90
2023-02-19T15:32:18.730Z,1.00
2023-02-19T15:35:42.671Z,1.00
2023-02-19T15:39:06.638Z,0.90
2023-02-19T15:42:33.275Z,1.23
2023-02-19T15:46:02.294Z,1.20
2023-02-19T15:49:33.277Z,1.20
2023-02-19T15:53:01.266Z,1.20
2023-02-19T15:56:31.465Z,0.83
2023-02-19T16:00:01.853Z,1.20
2023-02-19T16:03:37.993Z,1.10
2023-02-19T16:07:03.964Z,0.97
2023-02-19T16:10:30.696Z,1.40
2023-02-19T16:14:14.880Z,1.60
2023-02-19T16:17:39.034Z,1.50
2023-02-19T16:21:10.921Z,1.33
2023-02-19T16:24:41.874Z,1.40
2023-02-19T16:28:13.761Z,1.37
2023-02-19T16:31:37.813Z,1.63
2023-02-19T16:35:01.955Z,1.40
2023-02-19T16:38:27.349Z,1.63
2023-02-19T16:42:19.321Z,1.33
2023-02-19T16:45:43.877Z,1.20
2023-02-19T16:49:10.110Z,1.10
2023-02-19T16:52:34.032Z,1.20
2023-02-19T16:55:59.729Z,1.00
2023-02-19T16:59:23.707Z,1.10
2023-02-19T17:02:49.193Z,1.50
2023-02-19T17:06:13.589Z,1.30
2023-02-19T17:09:37.009Z,1.53
2023-02-19T17:13:02.166Z,1.40
2023-02-19T17:16:29.376Z,1.60
2023-02-19T17:19:53.244Z,1.90
2023-02-19T17:23:17.032Z,2.10
2023-02-19T17:26:41.005Z,2.80
2023-02-19T17:30:14.262Z,2.20
2023-02-19T17:33:38.210Z,2.23
2023-02-19T17:37:02.164Z,1.73
2023-02-19T17:40:33.500Z,1.63
2023-02-19T17:43:58.168Z,2.63
2023-02-19T17:47:23.538Z,2.13
2023-02-19T17:50:49.136Z,1.97
2023-02-19T17:54:12.906Z,1.70
2023-02-19T17:57:36.753Z,1.20
2023-02-19T18:01:00.384Z,1.23
2023-02-19T18:04:25.572Z,1.43
2023-02-19T18:07:50.289Z,1.83
2023-02-19T18:11:13.917Z,1.97
2023-02-19T18:14:37.858Z,1.40
2023-02-19T18:18:02.244Z,1.50
2023-02-19T18:21:27.455Z,1.30
2023-02-19T18:24:53.149Z,1.20
2023-02-19T18:28:17.195Z,1.27
2023-02-19T18:31:41.228Z,1.40
2023-02-19T18:35:06.422Z,1.50
2023-02-19T18:38:31.657Z,1.70
2023-02-19T18:41:55.589Z,1.77
2023-02-19T18:45:19.556Z,1.53
2023-02-19T18:48:43.748Z,1.20
2023-02-19T18:52:08.077Z,1.23
2023-02-19T18:55:33.340Z,1.20
2023-02-19T18:58:57.483Z,1.20
2023-02-19T19:02:22.163Z,1.13
2023-02-19T19:05:46.021Z,1.20
2023-02-19T19:09:09.874Z,0.90
2023-02-19T19:12:35.062Z,1.00
2023-02-19T19:15:59.025Z,1.00
2023-02-19T19:19:23.197Z,1.10
2023-02-19T19:22:47.091Z,1.10
2023-02-19T19:26:11.488Z,1.20
2023-02-19T19:29:36.802Z,1.20
2023-02-19T19:33:01.709Z,1.30
2023-02-19T19:36:26.081Z,1.00
2023-02-19T19:39:49.980Z,1.40
2023-02-19T19:43:14.316Z,0.97
2023-02-19T19:46:45.594Z,1.30
2023-02-19T19:50:10.115Z,1.30
2023-02-19T19:53:34.177Z,1.50
2023-02-19T19:56:58.070Z,1.40
2023-02-19T20:00:24.383Z,1.90
2023-02-19T20:03:50.937Z,1.27
2023-02-19T20:07:14.938Z,1.30
2023-02-19T20:10:38.885Z,1.30
2023-02-19T20:14:02.776Z,1.40
2023-02-19T20:17:29.008Z,1.50
2023-02-19T20:20:54.282Z,1.50
2023-02-19T20:24:19.139Z,1.27
2023-02-19T20:27:43.059Z,1.60
2023-02-19T20:31:08.981Z,1.53
2023-02-19T20:34:32.909Z,1.50
2023-02-19T20:37:58.144Z,1.87
2023-02-19T20:41:22.148Z,2.27
2023-02-19T20:44:46.102Z,1.80
2023-02-19T20:48:09.680Z,1.40
2023-02-19T20:51:33.277Z,1.50
2023-02-19T20:54:59.165Z,1.60
2023-02-19T20:58:23.283Z,1.40
2023-02-19T21:01:47.598Z,1.20
2023-02-19T21:05:11.498Z,0.90
2023-02-19T21:08:36.393Z,0.90
2023-02-19T21:12:01.584Z,1.50
2023-02-19T21:15:25.561Z,1.40
2023-02-19T21:18:49.459Z,1.30
2023-02-19T21:22:13.717Z,1.10
2023-02-19T21:25:37.223Z,1.40
2023-02-19T21:29:02.689Z,1.10
2023-02-19T21:32:26.731Z,1.20
2023-02-19T21:35:50.664Z,1.40
2023-02-19T21:39:17.331Z,1.13
2023-02-19T21:42:40.963Z,1.03
2023-02-19T21:46:06.789Z,1.10
2023-02-19T21:49:30.666Z,1.00
2023-02-19T21:52:55.190Z,1.50
2023-02-19T21:56:23.220Z,1.63
2023-02-19T21:59:47.107Z,1.30
2023-02-19T22:03:17.082Z,1.33
2023-02-19T22:06:41.270Z,1.33
2023-02-19T22:10:05.695Z,1.67
2023-02-19T22:13:29.528Z,1.30
2023-02-19T22:16:53.478Z,1.87
2023-02-19T22:20:19.616Z,1.20
2023-02-19T22:23:46.361Z,1.37
2023-02-19T22:27:10.364Z,1.33
2023-02-19T22:30:34.278Z,1.43
2023-02-19T22:33:58.153Z,1.40
2023-02-19T22:37:23.353Z,1.73
2023-02-19T22:40:47.249Z,1.33
2023-02-19T22:44:11.661Z,1.40
2023-02-19T22:47:35.509Z,1.30
2023-02-19T22:50:59.811Z,1.30
2023-02-19T22:54:26.895Z,1.33
2023-02-19T22:57:51.140Z,1.17
2023-02-19T23:01:16.196Z,1.30
2023-02-19T23:04:40.151Z,1.10
2023-02-19T23:08:04.654Z,1.10
2023-02-19T23:11:31.915Z,1.10
2023-02-19T23:14:55.445Z,1.13
2023-02-19T23:18:19.332Z,1.30
2023-02-19T23:21:45.473Z,1.30
2023-02-19T23:25:09.565Z,1.00
2023-02-19T23:28:34.680Z,1.43
2023-02-19T23:32:00.188Z,1.00
2023-02-19T23:35:23.815Z,1.10
2023-02-19T23:38:48.058Z,1.43
2023-02-19T23:42:16.943Z,1.17
2023-02-19T23:45:42.574Z,1.60
2023-02-19T23:49:06.511Z,1.20
2023-02-19T23:52:30.839Z,1.30
2023-02-19T23:55:54.883Z,1.40
2023-02-19T23:59:18.879Z,1.20
